sensor_id;sensor_type;location;lat;lon;timestamp;pressure;altitude;pressure_sealevel;temperature;humidity
8334;BME280;4204;43.004;23.052;2023-12-20T07:43:41;93656.09;;;2.86;100.00
8334;BME280;4204;43.004;23.052;2023-12-20T07:46:09;93659.81;;;2.80;100.00
8334;BME280;4204;43.004;23.052;2023-12-20T07:48:37;93652.34;;;3.07;100.00
8334;BME280;4204;43.004;23.052;2023-12-20T07:51:05;93654.84;;;3.33;100.00
8334;BME280;4204;43.004;23.052;2023-12-20T07:53:34;93651.81;;;3.54;100.00
8334;BME280;4204;43.004;23.052;2023-12-20T07:56:02;93654.31;;;3.74;100.00
8334;BME280;4204;43.004;23.052;2023-12-20T07:58:30;93650.72;;;3.94;100.00
8334;BME280;4204;43.004;23.052;2023-12-20T08:00:59;93650.66;;;4.04;100.00
8334;BME280;4204;43.004;23.052;2023-12-20T08:03:26;93650.09;;;4.07;100.00
8334;BME280;4204;43.004;23.052;2023-12-20T08:05:54;93655.00;;;4.19;100.00
8334;BME280;4204;43.004;23.052;2023-12-20T08:08:22;93640.69;;;4.30;100.00
8334;BME280;4204;43.004;23.052;2023-12-20T08:10:50;93639.56;;;4.36;100.00
8334;BME280;4204;43.004;23.052;2023-12-20T08:13:18;93645.44;;;4.28;100.00
8334;BME280;4204;43.004;23.052;2023-12-20T08:15:45;93645.03;;;4.44;100.00
8334;BME280;4204;43.004;23.052;2023-12-20T08:18:14;93639.13;;;4.76;100.00
8334;BME280;4204;43.004;23.052;2023-12-20T08:20:42;93636.00;;;4.98;100.00
8334;BME280;4204;43.004;23.052;2023-12-20T08:23:09;93626.16;;;5.03;100.00
8334;BME280;4204;43.004;23.052;2023-12-20T08:25:37;93635.22;;;5.16;100.00
8334;BME280;4204;43.004;23.052;2023-12-20T08:28:05;93637.97;;;5.66;100.00
8334;BME280;4204;43.004;23.052;2023-12-20T08:30:32;93637.97;;;6.04;100.00
8334;BME280;4204;43.004;23.052;2023-12-20T08:33:00;93624.78;;;6.49;100.00
8334;BME280;4204;43.004;23.052;2023-12-20T08:35:30;93621.34;;;6.90;100.00
8334;BME280;4204;43.004;23.052;2023-12-20T08:37:58;93622.13;;;7.04;100.00
8334;BME280;4204;43.004;23.052;2023-12-20T08:40:25;93619.38;;;7.22;100.00
8334;BME280;4204;43.004;23.052;2023-12-20T08:42:53;93612.69;;;7.39;100.00
8334;BME280;4204;43.004;23.052;2023-12-20T08:45:21;93610.50;;;7.54;100.00
8334;BME280;4204;43.004;23.052;2023-12-20T08:47:49;93604.19;;;7.64;100.00
8334;BME280;4204;43.004;23.052;2023-12-20T08:50:16;93607.44;;;7.83;100.00
8334;BME280;4204;43.004;23.052;2023-12-20T08:52:45;93593.25;;;8.01;100.00
8334;BME280;4204;43.004;23.052;2023-12-20T08:55:13;93599.31;;;8.01;100.00
8334;BME280;4204;43.004;23.052;2023-12-20T08:57:42;93596.41;;;8.25;100.00
8334;BME280;4204;43.004;23.052;2023-12-20T09:00:11;93594.53;;;8.56;100.00
8334;BME280;4204;43.004;23.052;2023-12-20T09:02:39;93582.75;;;8.79;100.00
8334;BME280;4204;43.004;23.052;2023-12-20T09:05:07;93576.00;;;9.04;100.00
8334;BME280;4204;43.004;23.052;2023-12-20T09:07:35;93566.63;;;9.07;100.00
8334;BME280;4204;43.004;23.052;2023-12-20T09:10:04;93580.06;;;9.19;100.00
8334;BME280;4204;43.004;23.052;2023-12-20T09:12:32;93564.47;;;9.17;100.00
8334;BME280;4204;43.004;23.052;2023-12-20T09:14:59;93555.25;;;9.23;100.00
8334;BME280;4204;43.004;23.052;2023-12-20T09:17:28;93539.50;;;9.35;100.00
8334;BME280;4204;43.004;23.052;2023-12-20T09:19:56;93540.75;;;9.29;100.00
8334;BME280;4204;43.004;23.052;2023-12-20T09:22:26;93542.94;;;9.44;100.00
8334;BME280;4204;43.004;23.052;2023-12-20T09:24:54;93539.22;;;9.45;100.00
8334;BME280;4204;43.004;23.052;2023-12-20T09:27:23;93534.66;;;9.80;100.00
8334;BME280;4204;43.004;23.052;2023-12-20T09:29:50;93532.47;;;9.91;100.00
8334;BME280;4204;43.004;23.052;2023-12-20T09:32:19;93527.44;;;9.98;100.00
8334;BME280;4204;43.004;23.052;2023-12-20T09:34:47;93531.84;;;10.11;100.00
8334;BME280;4204;43.004;23.052;2023-12-20T09:37:15;93537.63;;;10.13;100.00
8334;BME280;4204;43.004;23.052;2023-12-20T09:39:43;93529.75;;;10.08;100.00
8334;BME280;4204;43.004;23.052;2023-12-20T09:42:11;93516.34;;;10.13;100.00
8334;BME280;4204;43.004;23.052;2023-12-20T09:44:44;93515.41;;;10.09;100.00
8334;BME280;4204;43.004;23.052;2023-12-20T09:47:12;93508.38;;;10.13;100.00
8334;BME280;4204;43.004;23.052;2023-12-20T09:49:40;93496.34;;;10.07;100.00
8334;BME280;4204;43.004;23.052;2023-12-20T09:52:09;93499.47;;;10.09;100.00
8334;BME280;4204;43.004;23.052;2023-12-20T09:54:38;93481.94;;;10.16;100.00
8334;BME280;4204;43.004;23.052;2023-12-20T09:57:07;93484.44;;;10.21;100.00
8334;BME280;4204;43.004;23.052;2023-12-20T09:59:34;93478.69;;;10.11;100.00
8334;BME280;4204;43.004;23.052;2023-12-20T10:02:06;93481.47;;;10.23;100.00
8334;BME280;4204;43.004;23.052;2023-12-20T10:04:44;93467.91;;;10.16;100.00
8334;BME280;4204;43.004;23.052;2023-12-20T10:07:13;93469.94;;;10.02;100.00
8334;BME280;4204;43.004;23.052;2023-12-20T10:09:41;93463.97;;;10.22;100.00
8334;BME280;4204;43.004;23.052;2023-12-20T10:12:10;93457.69;;;10.26;100.00
8334;BME280;4204;43.004;23.052;2023-12-20T10:14:38;93455.31;;;10.33;100.00
8334;BME280;4204;43.004;23.052;2023-12-20T10:17:07;93454.81;;;10.40;100.00
8334;BME280;4204;43.004;23.052;2023-12-20T10:19:37;93449.97;;;10.42;100.00
8334;BME280;4204;43.004;23.052;2023-12-20T10:22:05;93427.81;;;10.29;100.00
8334;BME280;4204;43.004;23.052;2023-12-20T10:24:32;93440.88;;;10.43;100.00
8334;BME280;4204;43.004;23.052;2023-12-20T10:27:04;93435.66;;;10.55;100.00
8334;BME280;4204;43.004;23.052;2023-12-20T10:29:32;93433.28;;;10.62;100.00
8334;BME280;4204;43.004;23.052;2023-12-20T10:32:23;93429.72;;;10.79;100.00
8334;BME280;4204;43.004;23.052;2023-12-20T10:34:51;93430.97;;;10.81;100.00
8334;BME280;4204;43.004;23.052;2023-12-20T10:37:19;93420.03;;;10.74;100.00
8334;BME280;4204;43.004;23.052;2023-12-20T10:39:50;93415.59;;;10.87;100.00
8334;BME280;4204;43.004;23.052;2023-12-20T10:42:20;93406.00;;;10.94;100.00
8334;BME280;4204;43.004;23.052;2023-12-20T10:44:49;93401.78;;;11.14;100.00
8334;BME280;4204;43.004;23.052;2023-12-20T10:47:17;93399.22;;;11.17;100.00
8334;BME280;4204;43.004;23.052;2023-12-20T10:49:46;93391.97;;;11.26;100.00
8334;BME280;4204;43.004;23.052;2023-12-20T10:52:14;93389.97;;;11.23;100.00
8334;BME280;4204;43.004;23.052;2023-12-20T10:54:42;93392.59;;;11.44;100.00
8334;BME280;4204;43.004;23.052;2023-12-20T10:57:09;93392.09;;;11.63;100.00
8334;BME280;4204;43.004;23.052;2023-12-20T10:59:37;93387.03;;;11.70;100.00
8334;BME280;4204;43.004;23.052;2023-12-20T11:02:07;93371.75;;;11.79;100.00
8334;BME280;4204;43.004;23.052;2023-12-20T11:04:40;93378.06;;;11.98;100.00
8334;BME280;4204;43.004;23.052;2023-12-20T11:07:21;93368.75;;;11.92;100.00
8334;BME280;4204;43.004;23.052;2023-12-20T11:09:56;93372.09;;;12.01;100.00
8334;BME280;4204;43.004;23.052;2023-12-20T11:12:35;93350.78;;;12.01;100.00
8334;BME280;4204;43.004;23.052;2023-12-20T11:15:07;93355.88;;;12.06;100.00
8334;BME280;4204;43.004;23.052;2023-12-20T11:17:35;93355.66;;;12.11;100.00
8334;BME280;4204;43.004;23.052;2023-12-20T11:20:08;93351.66;;;12.17;100.00
8334;BME280;4204;43.004;23.052;2023-12-20T11:22:40;93346.00;;;12.07;100.00
8334;BME280;4204;43.004;23.052;2023-12-20T11:25:19;93344.22;;;11.99;100.00
8334;BME280;4204;43.004;23.052;2023-12-20T11:28:07;93342.22;;;12.08;100.00
8334;BME280;4204;43.004;23.052;2023-12-20T11:30:42;93333.78;;;12.18;100.00
8334;BME280;4204;43.004;23.052;2023-12-20T12:34:39;93212.56;;;12.67;100.00
8334;BME280;4204;43.004;23.052;2023-12-20T12:37:08;93146.78;;;12.32;100.00
8334;BME280;4204;43.004;23.052;2023-12-20T12:39:36;93170.50;;;12.49;100.00
8334;BME280;4204;43.004;23.052;2023-12-20T12:42:04;93181.91;;;12.61;100.00
8334;BME280;4204;43.004;23.052;2023-12-20T12:44:32;93153.75;;;12.36;100.00
8334;BME280;4204;43.004;23.052;2023-12-20T12:47:00;93160.41;;;12.42;100.00
8334;BME280;4204;43.004;23.052;2023-12-20T12:49:29;93138.00;;;12.31;100.00
8334;BME280;4204;43.004;23.052;2023-12-20T12:51:58;93157.59;;;12.51;100.00
8334;BME280;4204;43.004;23.052;2023-12-20T12:54:26;93203.19;;;12.73;100.00
8334;BME280;4204;43.004;23.052;2023-12-20T12:56:54;93164.28;;;12.45;100.00
8334;BME280;4204;43.004;23.052;2023-12-20T12:59:24;93178.78;;;12.59;100.00
8334;BME280;4204;43.004;23.052;2023-12-20T13:01:51;93134.47;;;12.27;100.00
8334;BME280;4204;43.004;23.052;2023-12-20T13:04:20;93177.00;;;12.63;100.00
8334;BME280;4204;43.004;23.052;2023-12-20T13:06:48;93131.91;;;12.31;100.00
8334;BME280;4204;43.004;23.052;2023-12-20T13:09:17;93178.38;;;12.73;100.00
8334;BME280;4204;43.004;23.052;2023-12-20T13:11:46;93147.81;;;12.55;100.00
8334;BME280;4204;43.004;23.052;2023-12-20T13:14:13;93132.63;;;12.43;100.00
8334;BME280;4204;43.004;23.052;2023-12-20T13:16:42;93127.19;;;12.40;100.00
8334;BME280;4204;43.004;23.052;2023-12-20T13:19:11;93135.31;;;12.43;100.00
8334;BME280;4204;43.004;23.052;2023-12-20T13:21:40;93198.56;;;12.86;100.00
8334;BME280;4204;43.004;23.052;2023-12-20T13:24:07;93151.34;;;12.59;100.00
8334;BME280;4204;43.004;23.052;2023-12-20T13:26:37;93183.66;;;12.85;100.00
8334;BME280;4204;43.004;23.052;2023-12-20T13:29:05;93192.72;;;12.80;100.00
8334;BME280;4204;43.004;23.052;2023-12-20T13:31:33;93149.38;;;12.56;100.00
8334;BME280;4204;43.004;23.052;2023-12-20T13:34:02;93182.53;;;12.70;100.00
8334;BME280;4204;43.004;23.052;2023-12-20T13:36:30;93192.28;;;12.78;100.00
8334;BME280;4204;43.004;23.052;2023-12-20T13:38:58;93172.63;;;12.71;100.00
8334;BME280;4204;43.004;23.052;2023-12-20T13:41:26;93180.81;;;12.78;100.00
8334;BME280;4204;43.004;23.052;2023-12-20T13:43:56;93130.91;;;12.35;100.00
8334;BME280;4204;43.004;23.052;2023-12-20T13:46:24;93190.47;;;12.55;100.00
8334;BME280;4204;43.004;23.052;2023-12-20T13:48:51;93178.59;;;12.52;100.00
8334;BME280;4204;43.004;23.052;2023-12-20T13:51:19;93150.72;;;12.22;100.00
8334;BME280;4204;43.004;23.052;2023-12-20T13:53:48;93187.94;;;12.46;100.00
8334;BME280;4204;43.004;23.052;2023-12-20T13:56:16;93183.63;;;12.42;100.00
8334;BME280;4204;43.004;23.052;2023-12-20T13:58:46;93118.81;;;11.98;100.00
8334;BME280;4204;43.004;23.052;2023-12-20T14:01:15;93135.19;;;12.12;100.00
8334;BME280;4204;43.004;23.052;2023-12-20T14:03:43;93129.00;;;11.96;100.00
8334;BME280;4204;43.004;23.052;2023-12-20T14:06:11;93128.38;;;11.87;100.00
8334;BME280;4204;43.004;23.052;2023-12-20T14:08:41;93180.28;;;12.05;100.00
8334;BME280;4204;43.004;23.052;2023-12-20T14:11:09;93112.09;;;11.52;100.00
8334;BME280;4204;43.004;23.052;2023-12-20T14:13:37;93123.22;;;11.42;100.00
8334;BME280;4204;43.004;23.052;2023-12-20T14:16:05;93154.47;;;11.45;100.00
8334;BME280;4204;43.004;23.052;2023-12-20T14:18:35;93108.78;;;11.07;100.00
8334;BME280;4204;43.004;23.052;2023-12-20T14:21:02;93108.66;;;10.91;100.00
8334;BME280;4204;43.004;23.052;2023-12-20T14:23:32;93177.66;;;11.32;100.00
8334;BME280;4204;43.004;23.052;2023-12-20T14:26:01;93105.97;;;10.55;100.00
8334;BME280;4204;43.004;23.052;2023-12-20T14:28:30;93156.47;;;10.55;100.00
8334;BME280;4204;43.004;23.052;2023-12-20T14:30:57;93143.34;;;10.38;100.00
8334;BME280;4204;43.004;23.052;2023-12-20T14:33:25;93131.97;;;10.17;100.00
8334;BME280;4204;43.004;23.052;2023-12-20T14:35:55;93145.78;;;10.10;100.00
8334;BME280;4204;43.004;23.052;2023-12-20T14:38:23;93114.66;;;9.69;100.00
8334;BME280;4204;43.004;23.052;2023-12-20T14:40:52;93139.19;;;9.66;100.00
8334;BME280;4204;43.004;23.052;2023-12-20T14:43:20;93171.34;;;9.73;100.00
8334;BME280;4204;43.004;23.052;2023-12-20T14:45:48;93119.56;;;9.09;100.00
8334;BME280;4204;43.004;23.052;2023-12-20T14:48:17;93122.66;;;9.11;100.00
8334;BME280;4204;43.004;23.052;2023-12-20T14:50:45;93141.13;;;8.99;100.00
8334;BME280;4204;43.004;23.052;2023-12-20T14:53:16;93113.06;;;8.60;100.00
8334;BME280;4204;43.004;23.052;2023-12-20T14:55:45;93130.06;;;8.51;100.00
8334;BME280;4204;43.004;23.052;2023-12-20T14:58:13;93170.13;;;8.58;100.00
8334;BME280;4204;43.004;23.052;2023-12-20T15:00:42;93170.13;;;8.66;100.00
8334;BME280;4204;43.004;23.052;2023-12-20T15:03:14;93145.69;;;8.44;100.00
8334;BME280;4204;43.004;23.052;2023-12-20T15:05:44;93185.13;;;8.28;100.00
8334;BME280;4204;43.004;23.052;2023-12-20T15:08:16;93098.06;;;7.92;100.00
8334;BME280;4204;43.004;23.052;2023-12-20T15:10:44;93166.91;;;8.35;100.00
8334;BME280;4204;43.004;23.052;2023-12-20T15:13:12;93172.06;;;8.32;100.00
8334;BME280;4204;43.004;23.052;2023-12-20T15:15:40;93143.22;;;7.96;100.00
8334;BME280;4204;43.004;23.052;2023-12-20T15:18:07;93158.66;;;7.94;100.00
8334;BME280;4204;43.004;23.052;2023-12-20T15:20:37;93179.19;;;8.14;100.00
8334;BME280;4204;43.004;23.052;2023-12-20T15:23:05;93113.31;;;7.70;100.00
8334;BME280;4204;43.004;23.052;2023-12-20T15:25:36;93133.25;;;7.67;100.00
8334;BME280;4204;43.004;23.052;2023-12-20T15:28:04;93186.53;;;7.91;100.00
8334;BME280;4204;43.004;23.052;2023-12-20T15:30:33;93182.00;;;7.75;100.00
8334;BME280;4204;43.004;23.052;2023-12-20T15:33:01;93179.47;;;7.70;100.00
8334;BME280;4204;43.004;23.052;2023-12-20T15:35:29;93164.53;;;7.57;100.00
8334;BME280;4204;43.004;23.052;2023-12-20T15:37:58;93186.44;;;7.40;100.00
8334;BME280;4204;43.004;23.052;2023-12-20T15:40:26;93103.13;;;6.95;100.00
8334;BME280;4204;43.004;23.052;2023-12-20T15:42:55;93104.50;;;6.92;100.00
8334;BME280;4204;43.004;23.052;2023-12-20T15:45:26;93107.94;;;6.93;100.00
8334;BME280;4204;43.004;23.052;2023-12-20T15:47:57;93179.06;;;7.11;100.00
8334;BME280;4204;43.004;23.052;2023-12-20T15:50:30;93171.28;;;7.15;100.00
8334;BME280;4204;43.004;23.052;2023-12-20T15:52:58;93127.94;;;6.85;100.00
8334;BME280;4204;43.004;23.052;2023-12-20T15:55:26;93166.28;;;7.05;100.00
8334;BME280;4204;43.004;23.052;2023-12-20T15:57:56;93098.19;;;6.32;100.00
8334;BME280;4204;43.004;23.052;2023-12-20T16:00:25;93114.72;;;6.46;100.00
8334;BME280;4204;43.004;23.052;2023-12-20T16:02:53;93167.69;;;6.72;100.00
8334;BME280;4204;43.004;23.052;2023-12-20T16:05:24;93089.63;;;6.26;100.00
8334;BME280;4204;43.004;23.052;2023-12-20T16:07:52;93158.31;;;6.57;100.00
8334;BME280;4204;43.004;23.052;2023-12-20T16:10:23;93149.69;;;6.21;100.00
8334;BME280;4204;43.004;23.052;2023-12-20T16:12:51;93169.72;;;6.44;100.00
8334;BME280;4204;43.004;23.052;2023-12-20T16:15:28;93185.66;;;6.08;100.00
8334;BME280;4204;43.004;23.052;2023-12-20T16:17:57;93156.88;;;5.49;100.00
8334;BME280;4204;43.004;23.052;2023-12-20T16:20:29;93180.53;;;5.54;100.00
8334;BME280;4204;43.004;23.052;2023-12-20T16:22:57;93173.59;;;5.44;100.00
8334;BME280;4204;43.004;23.052;2023-12-20T16:25:27;93113.53;;;5.19;100.00
8334;BME280;4204;43.004;23.052;2023-12-20T16:27:55;93165.63;;;5.71;100.00
8334;BME280;4204;43.004;23.052;2023-12-20T16:30:23;93121.88;;;5.35;100.00
8334;BME280;4204;43.004;23.052;2023-12-20T16:32:53;93139.72;;;5.73;100.00
8334;BME280;4204;43.004;23.052;2023-12-20T16:35:21;93178.94;;;5.66;100.00
8334;BME280;4204;43.004;23.052;2023-12-20T16:37:49;93110.44;;;4.90;100.00
8334;BME280;4204;43.004;23.052;2023-12-20T16:40:17;93154.09;;;5.32;100.00
8334;BME280;4204;43.004;23.052;2023-12-20T16:42:52;93176.53;;;5.43;100.00
8334;BME280;4204;43.004;23.052;2023-12-20T16:45:21;93166.06;;;5.51;100.00
8334;BME280;4204;43.004;23.052;2023-12-20T16:47:49;93130.31;;;5.23;100.00
8334;BME280;4204;43.004;23.052;2023-12-20T16:50:18;93162.06;;;5.54;100.00
8334;BME280;4204;43.004;23.052;2023-12-20T16:52:49;93181.31;;;5.41;100.00
8334;BME280;4204;43.004;23.052;2023-12-20T16:55:19;93140.78;;;4.87;100.00
8334;BME280;4204;43.004;23.052;2023-12-20T16:57:47;93132.78;;;4.65;100.00
8334;BME280;4204;43.004;23.052;2023-12-20T17:00:16;93167.81;;;4.93;100.00
8334;BME280;4204;43.004;23.052;2023-12-20T17:02:46;93137.38;;;4.73;100.00
8334;BME280;4204;43.004;23.052;2023-12-20T17:05:19;93175.22;;;5.05;100.00
8334;BME280;4204;43.004;23.052;2023-12-20T17:07:47;93174.44;;;5.04;100.00
8334;BME280;4204;43.004;23.052;2023-12-20T17:10:15;93200.00;;;5.31;100.00
8334;BME280;4204;43.004;23.052;2023-12-20T17:12:44;93203.03;;;5.38;100.00
8334;BME280;4204;43.004;23.052;2023-12-20T17:15:12;93142.41;;;4.97;100.00
8334;BME280;4204;43.004;23.052;2023-12-20T17:17:41;93210.16;;;5.37;100.00
8334;BME280;4204;43.004;23.052;2023-12-20T17:20:09;93187.59;;;5.18;100.00
8334;BME280;4204;43.004;23.052;2023-12-20T17:22:39;93148.47;;;4.98;100.00
8334;BME280;4204;43.004;23.052;2023-12-20T17:25:07;93214.06;;;5.40;100.00
8334;BME280;4204;43.004;23.052;2023-12-20T17:27:37;93163.03;;;4.81;100.00
8334;BME280;4204;43.004;23.052;2023-12-20T17:30:07;93204.00;;;5.01;100.00
8334;BME280;4204;43.004;23.052;2023-12-20T17:32:36;93143.28;;;4.38;100.00
8334;BME280;4204;43.004;23.052;2023-12-20T17:35:07;93189.91;;;4.51;100.00
8334;BME280;4204;43.004;23.052;2023-12-20T17:37:35;93196.50;;;4.35;100.00
8334;BME280;4204;43.004;23.052;2023-12-20T17:40:06;93169.31;;;4.26;100.00
8334;BME280;4204;43.004;23.052;2023-12-20T17:42:35;93143.13;;;4.16;100.00
8334;BME280;4204;43.004;23.052;2023-12-20T17:45:04;93158.03;;;4.53;100.00
8334;BME280;4204;43.004;23.052;2023-12-20T17:47:32;93112.66;;;4.15;100.00
8334;BME280;4204;43.004;23.052;2023-12-20T17:50:00;93203.22;;;4.28;100.00
8334;BME280;4204;43.004;23.052;2023-12-20T17:52:28;93196.63;;;4.30;100.00
8334;BME280;4204;43.004;23.052;2023-12-20T17:55:01;93199.81;;;4.41;100.00
8334;BME280;4204;43.004;23.052;2023-12-20T17:57:31;93171.41;;;4.10;100.00
8334;BME280;4204;43.004;23.052;2023-12-20T18:00:11;93191.75;;;4.37;100.00
8334;BME280;4204;43.004;23.052;2023-12-20T18:02:40;93133.19;;;4.13;100.00
8334;BME280;4204;43.004;23.052;2023-12-20T18:05:08;93101.44;;;4.09;100.00
8334;BME280;4204;43.004;23.052;2023-12-20T18:07:37;93175.97;;;4.51;100.00
8334;BME280;4204;43.004;23.052;2023-12-20T18:10:06;93146.75;;;4.20;100.00
8334;BME280;4204;43.004;23.052;2023-12-20T18:12:36;93172.81;;;4.35;100.00
8334;BME280;4204;43.004;23.052;2023-12-20T18:15:05;93198.03;;;4.55;100.00
8334;BME280;4204;43.004;23.052;2023-12-20T18:17:33;93146.06;;;4.15;100.00
8334;BME280;4204;43.004;23.052;2023-12-20T18:20:01;93198.69;;;4.47;100.00
8334;BME280;4204;43.004;23.052;2023-12-20T18:22:30;93131.56;;;4.17;100.00
8334;BME280;4204;43.004;23.052;2023-12-20T18:24:58;93172.94;;;4.30;100.00
8334;BME280;4204;43.004;23.052;2023-12-20T18:27:26;93193.31;;;4.52;100.00
8334;BME280;4204;43.004;23.052;2023-12-20T18:29:55;93160.38;;;4.08;100.00
8334;BME280;4204;43.004;23.052;2023-12-20T18:32:25;93132.06;;;3.87;100.00
8334;BME280;4204;43.004;23.052;2023-12-20T18:34:53;93154.63;;;4.06;100.00
8334;BME280;4204;43.004;23.052;2023-12-20T18:37:20;93205.38;;;4.39;100.00
8334;BME280;4204;43.004;23.052;2023-12-20T18:39:48;93186.22;;;4.20;100.00
8334;BME280;4204;43.004;23.052;2023-12-20T18:42:17;93183.19;;;4.13;100.00
8334;BME280;4204;43.004;23.052;2023-12-20T18:44:45;93183.31;;;3.71;100.00
8334;BME280;4204;43.004;23.052;2023-12-20T18:47:14;93210.19;;;4.05;100.00
8334;BME280;4204;43.004;23.052;2023-12-20T18:49:42;93216.50;;;4.04;100.00
8334;BME280;4204;43.004;23.052;2023-12-20T18:52:10;93132.38;;;3.48;100.00
8334;BME280;4204;43.004;23.052;2023-12-20T18:54:38;93164.84;;;3.76;100.00
8334;BME280;4204;43.004;23.052;2023-12-20T18:57:06;93152.13;;;3.64;100.00
8334;BME280;4204;43.004;23.052;2023-12-20T18:59:35;93185.66;;;3.91;100.00
8334;BME280;4204;43.004;23.052;2023-12-20T19:02:04;93185.19;;;3.52;100.00
8334;BME280;4204;43.004;23.052;2023-12-20T19:04:35;93186.03;;;3.47;100.00
8334;BME280;4204;43.004;23.052;2023-12-20T19:07:05;93146.13;;;3.26;100.00
8334;BME280;4204;43.004;23.052;2023-12-20T19:09:33;93205.44;;;3.70;100.00
8334;BME280;4204;43.004;23.052;2023-12-20T19:12:00;93136.00;;;3.34;100.00
8334;BME280;4204;43.004;23.052;2023-12-20T19:14:28;93165.38;;;3.41;100.00
8334;BME280;4204;43.004;23.052;2023-12-20T19:16:58;93141.56;;;3.13;100.00
8334;BME280;4204;43.004;23.052;2023-12-20T19:19:27;93132.81;;;2.99;100.00
8334;BME280;4204;43.004;23.052;2023-12-20T19:21:57;93184.31;;;3.38;100.00
8334;BME280;4204;43.004;23.052;2023-12-20T19:24:25;93214.03;;;3.57;100.00
8334;BME280;4204;43.004;23.052;2023-12-20T19:26:53;93219.16;;;3.67;100.00
8334;BME280;4204;43.004;23.052;2023-12-20T19:29:23;93190.50;;;3.47;100.00
8334;BME280;4204;43.004;23.052;2023-12-20T19:31:51;93218.44;;;3.43;100.00
8334;BME280;4204;43.004;23.052;2023-12-20T19:34:20;93187.59;;;2.87;100.00
8334;BME280;4204;43.004;23.052;2023-12-20T19:36:48;93210.09;;;2.93;100.00
8334;BME280;4204;43.004;23.052;2023-12-20T19:39:18;93213.22;;;2.95;100.00
8334;BME280;4204;43.004;23.052;2023-12-20T19:41:46;93189.50;;;2.58;100.00
8334;BME280;4204;43.004;23.052;2023-12-20T19:44:14;93188.09;;;2.42;100.00
8334;BME280;4204;43.004;23.052;2023-12-20T19:46:43;93212.34;;;2.53;100.00
8334;BME280;4204;43.004;23.052;2023-12-20T19:49:14;93187.63;;;2.35;100.00
8334;BME280;4204;43.004;23.052;2023-12-20T19:51:42;93199.66;;;2.88;100.00
8334;BME280;4204;43.004;23.052;2023-12-20T19:54:10;93209.53;;;2.96;100.00
8334;BME280;4204;43.004;23.052;2023-12-20T19:56:40;93158.53;;;2.79;100.00
8334;BME280;4204;43.004;23.052;2023-12-20T19:59:08;93132.44;;;2.64;100.00
8334;BME280;4204;43.004;23.052;2023-12-20T20:01:35;93159.41;;;2.93;100.00
8334;BME280;4204;43.004;23.052;2023-12-20T20:04:06;93190.41;;;3.14;100.00
8334;BME280;4204;43.004;23.052;2023-12-20T20:06:34;93135.69;;;2.79;100.00
8334;BME280;4204;43.004;23.052;2023-12-20T20:09:02;93148.81;;;2.79;100.00
8334;BME280;4204;43.004;23.052;2023-12-20T20:11:31;93209.84;;;3.13;100.00
8334;BME280;4204;43.004;23.052;2023-12-20T20:14:00;93132.44;;;2.64;100.00
8334;BME280;4204;43.004;23.052;2023-12-20T20:16:28;93195.88;;;3.18;100.00
8334;BME280;4204;43.004;23.052;2023-12-20T20:18:57;93164.50;;;3.08;100.00
8334;BME280;4204;43.004;23.052;2023-12-20T20:21:26;93223.91;;;3.46;100.00
8334;BME280;4204;43.004;23.052;2023-12-20T20:23:54;93138.47;;;3.06;100.00
8334;BME280;4204;43.004;23.052;2023-12-20T20:26:22;93129.88;;;2.82;100.00
8334;BME280;4204;43.004;23.052;2023-12-20T20:28:50;93207.59;;;3.25;100.00
8334;BME280;4204;43.004;23.052;2023-12-20T20:31:20;93201.16;;;2.94;100.00
8334;BME280;4204;43.004;23.052;2023-12-20T20:33:49;93199.84;;;2.92;100.00
8334;BME280;4204;43.004;23.052;2023-12-20T20:36:17;93216.56;;;3.01;100.00
8334;BME280;4204;43.004;23.052;2023-12-20T20:38:45;93225.78;;;2.98;100.00
8334;BME280;4204;43.004;23.052;2023-12-20T20:41:13;93148.41;;;2.20;100.00
8334;BME280;4204;43.004;23.052;2023-12-20T20:43:41;93183.06;;;2.45;100.00
8334;BME280;4204;43.004;23.052;2023-12-20T20:46:09;93184.97;;;2.64;100.00
8334;BME280;4204;43.004;23.052;2023-12-20T20:48:38;93150.66;;;2.31;100.00
8334;BME280;4204;43.004;23.052;2023-12-20T20:51:06;93215.31;;;2.75;100.00
8334;BME280;4204;43.004;23.052;2023-12-20T20:53:34;93180.53;;;2.59;100.00
8334;BME280;4204;43.004;23.052;2023-12-20T20:56:03;93150.66;;;2.55;100.00
8334;BME280;4204;43.004;23.052;2023-12-20T20:58:31;93193.00;;;2.72;100.00
8334;BME280;4204;43.004;23.052;2023-12-20T21:01:00;93214.13;;;2.86;100.00
8334;BME280;4204;43.004;23.052;2023-12-20T21:03:28;93232.34;;;2.77;100.00
8334;BME280;4204;43.004;23.052;2023-12-20T21:05:58;93168.25;;;2.31;100.00
8334;BME280;4204;43.004;23.052;2023-12-20T21:08:26;93155.34;;;2.34;100.00
8334;BME280;4204;43.004;23.052;2023-12-20T21:10:54;93141.81;;;2.22;100.00
8334;BME280;4204;43.004;23.052;2023-12-20T21:13:25;93154.34;;;2.30;100.00
8334;BME280;4204;43.004;23.052;2023-12-20T21:15:53;93185.97;;;2.44;100.00
8334;BME280;4204;43.004;23.052;2023-12-20T21:18:21;93153.66;;;2.20;100.00
8334;BME280;4204;43.004;23.052;2023-12-20T21:20:49;93196.59;;;2.29;100.00
8334;BME280;4204;43.004;23.052;2023-12-20T21:23:19;93246.34;;;2.68;100.00
8334;BME280;4204;43.004;23.052;2023-12-20T21:25:48;93206.50;;;2.37;100.00
8334;BME280;4204;43.004;23.052;2023-12-20T21:28:15;93219.00;;;2.45;100.00
8334;BME280;4204;43.004;23.052;2023-12-20T21:30:44;93236.47;;;2.55;100.00
8334;BME280;4204;43.004;23.052;2023-12-20T21:33:11;93209.72;;;2.29;100.00
8334;BME280;4204;43.004;23.052;2023-12-20T21:35:40;93200.50;;;2.03;100.00
8334;BME280;4204;43.004;23.052;2023-12-20T21:38:08;93236.50;;;2.26;100.00
8334;BME280;4204;43.004;23.052;2023-12-20T21:40:38;93206.19;;;2.10;100.00
8334;BME280;4204;43.004;23.052;2023-12-20T21:43:06;93235.47;;;2.22;100.00
8334;BME280;4204;43.004;23.052;2023-12-20T21:45:34;93202.56;;;2.06;100.00
8334;BME280;4204;43.004;23.052;2023-12-20T21:48:03;93149.91;;;1.69;100.00
8334;BME280;4204;43.004;23.052;2023-12-20T21:50:32;93174.94;;;1.85;100.00
8334;BME280;4204;43.004;23.052;2023-12-20T21:53:00;93158.03;;;1.67;100.00
8334;BME280;4204;43.004;23.052;2023-12-20T21:55:27;93188.47;;;1.97;100.00
8334;BME280;4204;43.004;23.052;2023-12-20T21:57:58;93208.78;;;2.15;100.00
8334;BME280;4204;43.004;23.052;2023-12-20T22:00:26;93234.44;;;2.23;100.00